sensor_id;sensor_type;location;lat;lon;timestamp;pressure;altitude;pressure_sealevel;temperature;humidity
35778;BME280;21899;42.662;23.316;2023-02-15T00:01:46;95578.78;;;1.45;95.88
35778;BME280;21899;42.662;23.316;2023-02-15T00:04:13;95586.22;;;1.43;96.08
35778;BME280;21899;42.662;23.316;2023-02-15T00:06:39;95587.78;;;1.44;96.17
35778;BME280;21899;42.662;23.316;2023-02-15T00:09:04;95595.78;;;1.39;96.59
35778;BME280;21899;42.662;23.316;2023-02-15T00:11:30;95593.66;;;1.41;96.92
35778;BME280;21899;42.662;23.316;2023-02-15T00:14:09;95587.56;;;1.41;96.87
35778;BME280;21899;42.662;23.316;2023-02-15T00:16:36;95600.50;;;1.42;97.01
35778;BME280;21899;42.662;23.316;2023-02-15T00:19:02;95595.69;;;1.44;96.79
35778;BME280;21899;42.662;23.316;2023-02-15T00:21:30;95595.38;;;1.46;96.94
35778;BME280;21899;42.662;23.316;2023-02-15T00:23:57;95597.44;;;1.49;96.60
35778;BME280;21899;42.662;23.316;2023-02-15T00:26:23;95591.19;;;1.45;96.48
35778;BME280;21899;42.662;23.316;2023-02-15T00:28:49;95599.50;;;1.52;96.49
35778;BME280;21899;42.662;23.316;2023-02-15T00:31:14;95607.09;;;1.53;96.33
35778;BME280;21899;42.662;23.316;2023-02-15T00:33:40;95608.66;;;1.54;96.36
35778;BME280;21899;42.662;23.316;2023-02-15T00:36:07;95609.63;;;1.58;96.10
35778;BME280;21899;42.662;23.316;2023-02-15T00:38:33;95601.41;;;1.60;95.88
35778;BME280;21899;42.662;23.316;2023-02-15T00:41:01;95610.59;;;1.62;96.11
35778;BME280;21899;42.662;23.316;2023-02-15T00:43:28;95602.66;;;1.62;95.85
35778;BME280;21899;42.662;23.316;2023-02-15T00:45:53;95600.44;;;1.56;96.00
35778;BME280;21899;42.662;23.316;2023-02-15T00:48:19;95600.13;;;1.57;95.98
35778;BME280;21899;42.662;23.316;2023-02-15T00:50:50;95602.22;;;1.60;96.06
35778;BME280;21899;42.662;23.316;2023-02-15T00:53:15;95606.09;;;1.63;95.44
35778;BME280;21899;42.662;23.316;2023-02-15T00:55:41;95597.38;;;1.62;95.56
35778;BME280;21899;42.662;23.316;2023-02-15T00:58:07;95589.25;;;1.50;95.67
35778;BME280;21899;42.662;23.316;2023-02-15T01:00:33;95604.34;;;1.58;95.90
35778;BME280;21899;42.662;23.316;2023-02-15T01:02:59;95591.88;;;1.50;96.04
35778;BME280;21899;42.662;23.316;2023-02-15T01:05:25;95599.06;;;1.58;96.04
35778;BME280;21899;42.662;23.316;2023-02-15T01:07:50;95596.31;;;1.63;95.86
35778;BME280;21899;42.662;23.316;2023-02-15T01:10:16;95603.53;;;1.71;95.50
35778;BME280;21899;42.662;23.316;2023-02-15T01:12:41;95586.41;;;1.69;95.82
35778;BME280;21899;42.662;23.316;2023-02-15T01:15:07;95594.34;;;1.69;95.23
35778;BME280;21899;42.662;23.316;2023-02-15T01:17:32;95578.63;;;1.64;95.39
35778;BME280;21899;42.662;23.316;2023-02-15T01:19:58;95590.81;;;1.73;95.17
35778;BME280;21899;42.662;23.316;2023-02-15T01:22:25;95599.63;;;1.69;95.06
35778;BME280;21899;42.662;23.316;2023-02-15T01:24:50;95596.28;;;1.77;94.86
35778;BME280;21899;42.662;23.316;2023-02-15T01:27:16;95588.78;;;1.70;94.93
35778;BME280;21899;42.662;23.316;2023-02-15T01:29:41;95592.00;;;1.67;95.41
35778;BME280;21899;42.662;23.316;2023-02-15T01:32:06;95576.41;;;1.57;95.94
35778;BME280;21899;42.662;23.316;2023-02-15T01:34:32;95574.84;;;1.56;95.79
35778;BME280;21899;42.662;23.316;2023-02-15T01:36:57;95569.88;;;1.55;95.92
35778;BME280;21899;42.662;23.316;2023-02-15T01:39:23;95583.44;;;1.62;95.98
35778;BME280;21899;42.662;23.316;2023-02-15T01:41:48;95577.97;;;1.58;96.36
35778;BME280;21899;42.662;23.316;2023-02-15T01:44:48;95580.13;;;1.56;96.87
35778;BME280;21899;42.662;23.316;2023-02-15T01:47:26;95577.66;;;1.60;96.78
35778;BME280;21899;42.662;23.316;2023-02-15T01:50:04;95562.56;;;1.52;97.31
35778;BME280;21899;42.662;23.316;2023-02-15T01:52:35;95577.97;;;1.58;96.99
35778;BME280;21899;42.662;23.316;2023-02-15T01:55:02;95564.28;;;1.56;96.63
35778;BME280;21899;42.662;23.316;2023-02-15T01:57:28;95570.34;;;1.57;96.94
35778;BME280;21899;42.662;23.316;2023-02-15T01:59:56;95555.06;;;1.45;97.29
35778;BME280;21899;42.662;23.316;2023-02-15T02:02:23;95561.56;;;1.48;97.51
35778;BME280;21899;42.662;23.316;2023-02-15T02:04:52;95553.28;;;1.41;97.98
35778;BME280;21899;42.662;23.316;2023-02-15T02:07:25;95577.81;;;1.41;98.59
35778;BME280;21899;42.662;23.316;2023-02-15T02:09:51;95567.88;;;1.38;98.52
35778;BME280;21899;42.662;23.316;2023-02-15T02:12:18;95552.94;;;1.33;99.28
35778;BME280;21899;42.662;23.316;2023-02-15T02:14:45;95559.56;;;1.31;99.51
35778;BME280;21899;42.662;23.316;2023-02-15T02:17:17;95560.66;;;1.30;99.70
35778;BME280;21899;42.662;23.316;2023-02-15T02:20:17;95567.78;;;1.29;99.96
35778;BME280;21899;42.662;23.316;2023-02-15T02:44:57;95576.16;;;1.67;97.97
35778;BME280;21899;42.662;23.316;2023-02-15T02:47:53;95584.56;;;1.69;97.55
35778;BME280;21899;42.662;23.316;2023-02-15T02:50:22;95574.50;;;1.71;97.50
35778;BME280;21899;42.662;23.316;2023-02-15T02:52:50;95578.13;;;1.75;96.95
35778;BME280;21899;42.662;23.316;2023-02-15T02:55:34;95580.91;;;1.79;96.46
35778;BME280;21899;42.662;23.316;2023-02-15T02:58:08;95582.78;;;1.78;96.45
35778;BME280;21899;42.662;23.316;2023-02-15T03:00:43;95575.75;;;1.74;96.68
35778;BME280;21899;42.662;23.316;2023-02-15T03:03:14;95578.56;;;1.77;96.29
35778;BME280;21899;42.662;23.316;2023-02-15T03:05:43;95581.59;;;1.84;95.88
35778;BME280;21899;42.662;23.316;2023-02-15T03:08:12;95595.63;;;1.93;95.76
35778;BME280;21899;42.662;23.316;2023-02-15T03:10:47;95595.78;;;1.97;95.50
35778;BME280;21899;42.662;23.316;2023-02-15T03:13:13;95586.44;;;1.91;95.25
35778;BME280;21899;42.662;23.316;2023-02-15T03:15:39;95598.63;;;2.00;94.90
35778;BME280;21899;42.662;23.316;2023-02-15T03:18:28;95591.28;;;1.97;95.08
35778;BME280;21899;42.662;23.316;2023-02-15T03:20:57;95592.28;;;2.01;94.78
35778;BME280;21899;42.662;23.316;2023-02-15T03:23:27;95604.25;;;2.07;94.74
35778;BME280;21899;42.662;23.316;2023-02-15T03:25:59;95600.25;;;2.10;94.54
35778;BME280;21899;42.662;23.316;2023-02-15T03:28:30;95597.44;;;2.06;94.27
35778;BME280;21899;42.662;23.316;2023-02-15T03:31:00;95601.50;;;2.12;94.13
35778;BME280;21899;42.662;23.316;2023-02-15T03:33:28;95599.94;;;2.11;93.97
35778;BME280;21899;42.662;23.316;2023-02-15T03:36:04;95593.88;;;2.11;93.70
35778;BME280;21899;42.662;23.316;2023-02-15T03:38:47;95598.69;;;2.09;94.16
35778;BME280;21899;42.662;23.316;2023-02-15T03:41:17;95600.06;;;2.06;94.37
35778;BME280;21899;42.662;23.316;2023-02-15T03:48:52;95592.59;;;2.08;93.85
35778;BME280;21899;42.662;23.316;2023-02-15T03:51:21;95594.19;;;2.09;93.91
35778;BME280;21899;42.662;23.316;2023-02-15T03:57:03;95589.38;;;2.11;94.02
35778;BME280;21899;42.662;23.316;2023-02-15T03:59:48;95599.53;;;2.18;93.72
35778;BME280;21899;42.662;23.316;2023-02-15T04:03:04;95596.47;;;2.24;93.71
35778;BME280;21899;42.662;23.316;2023-02-15T04:05:24;95593.34;;;2.22;93.80
35778;BME280;21899;42.662;23.316;2023-02-15T04:07:49;95595.84;;;2.27;93.27
35778;BME280;21899;42.662;23.316;2023-02-15T04:10:15;95591.59;;;2.18;93.46
35778;BME280;21899;42.662;23.316;2023-02-15T04:12:59;95612.91;;;2.21;93.83
35778;BME280;21899;42.662;23.316;2023-02-15T04:15:24;95617.59;;;2.24;93.71
35778;BME280;21899;42.662;23.316;2023-02-15T04:18:08;95618.31;;;2.16;94.17
35778;BME280;21899;42.662;23.316;2023-02-15T04:20:34;95619.88;;;2.17;94.51
35778;BME280;21899;42.662;23.316;2023-02-15T04:23:18;95617.22;;;2.17;94.72
35778;BME280;21899;42.662;23.316;2023-02-15T04:26:05;95608.81;;;2.15;94.87
35778;BME280;21899;42.662;23.316;2023-02-15T04:28:30;95623.13;;;2.14;95.21
35778;BME280;21899;42.662;23.316;2023-02-15T04:30:56;95635.72;;;2.17;95.40
35778;BME280;21899;42.662;23.316;2023-02-15T04:33:21;95629.00;;;2.11;95.70
35778;BME280;21899;42.662;23.316;2023-02-15T04:35:46;95632.28;;;2.17;94.92
35778;BME280;21899;42.662;23.316;2023-02-15T04:38:12;95628.47;;;2.23;95.01
35778;BME280;21899;42.662;23.316;2023-02-15T04:40:37;95638.72;;;2.24;94.93
35778;BME280;21899;42.662;23.316;2023-02-15T04:43:03;95637.75;;;2.20;95.18
35778;BME280;21899;42.662;23.316;2023-02-15T04:45:28;95647.28;;;2.30;95.00
35778;BME280;21899;42.662;23.316;2023-02-15T04:47:53;95622.09;;;2.24;94.77
35778;BME280;21899;42.662;23.316;2023-02-15T04:50:19;95633.19;;;2.34;94.19
35778;BME280;21899;42.662;23.316;2023-02-15T04:52:44;95622.44;;;2.31;94.89
35778;BME280;21899;42.662;23.316;2023-02-15T04:55:10;95622.25;;;2.27;94.81
35778;BME280;21899;42.662;23.316;2023-02-15T04:57:35;95648.44;;;2.37;94.28
35778;BME280;21899;42.662;23.316;2023-02-15T05:00:01;95644.56;;;2.43;94.28
35778;BME280;21899;42.662;23.316;2023-02-15T05:02:26;95641.44;;;2.41;93.91
35778;BME280;21899;42.662;23.316;2023-02-15T05:04:51;95649.09;;;2.43;94.14
35778;BME280;21899;42.662;23.316;2023-02-15T05:07:17;95644.69;;;2.38;93.22
35778;BME280;21899;42.662;23.316;2023-02-15T05:09:43;95650.34;;;2.45;93.61
35778;BME280;21899;42.662;23.316;2023-02-15T05:12:08;95650.78;;;2.39;93.87
35778;BME280;21899;42.662;23.316;2023-02-15T05:14:33;95649.56;;;2.45;93.85
35778;BME280;21899;42.662;23.316;2023-02-15T05:16:59;95659.38;;;2.44;93.48
35778;BME280;21899;42.662;23.316;2023-02-15T05:19:27;95658.56;;;2.44;93.72
35778;BME280;21899;42.662;23.316;2023-02-15T05:21:52;95661.03;;;2.40;93.94
35778;BME280;21899;42.662;23.316;2023-02-15T05:24:17;95664.28;;;2.37;94.05
35778;BME280;21899;42.662;23.316;2023-02-15T05:27:01;95670.50;;;2.41;94.12
35778;BME280;21899;42.662;23.316;2023-02-15T05:29:45;95677.19;;;2.39;94.06
35778;BME280;21899;42.662;23.316;2023-02-15T05:32:13;95664.53;;;2.27;94.28
35778;BME280;21899;42.662;23.316;2023-02-15T05:34:39;95686.03;;;2.34;94.20
35778;BME280;21899;42.662;23.316;2023-02-15T05:37:04;95678.56;;;2.36;94.43
35778;BME280;21899;42.662;23.316;2023-02-15T05:39:29;95687.16;;;2.42;93.66
35778;BME280;21899;42.662;23.316;2023-02-15T05:41:58;95689.69;;;2.47;93.28
35778;BME280;21899;42.662;23.316;2023-02-15T05:44:24;95684.28;;;2.52;93.19
35778;BME280;21899;42.662;23.316;2023-02-15T05:46:50;95680.97;;;2.46;92.90
35778;BME280;21899;42.662;23.316;2023-02-15T05:49:15;95688.19;;;2.54;92.97
35778;BME280;21899;42.662;23.316;2023-02-15T05:51:41;95682.75;;;2.59;92.15
35778;BME280;21899;42.662;23.316;2023-02-15T05:54:06;95689.91;;;2.59;92.56
35778;BME280;21899;42.662;23.316;2023-02-15T05:56:31;95684.63;;;2.59;91.94
35778;BME280;21899;42.662;23.316;2023-02-15T05:58:57;95694.78;;;2.65;92.16
35778;BME280;21899;42.662;23.316;2023-02-15T06:01:22;95676.72;;;2.59;92.07
35778;BME280;21899;42.662;23.316;2023-02-15T06:03:48;95679.56;;;2.71;91.77
35778;BME280;21899;42.662;23.316;2023-02-15T06:06:14;95689.53;;;2.74;91.53
35778;BME280;21899;42.662;23.316;2023-02-15T06:08:40;95688.75;;;2.74;91.15
35778;BME280;21899;42.662;23.316;2023-02-15T06:11:06;95684.69;;;2.67;90.89
35778;BME280;21899;42.662;23.316;2023-02-15T06:13:31;95692.63;;;2.67;91.70
35778;BME280;21899;42.662;23.316;2023-02-15T06:15:57;95681.91;;;2.73;91.56
35778;BME280;21899;42.662;23.316;2023-02-15T06:18:23;95685.00;;;2.75;90.77
35778;BME280;21899;42.662;23.316;2023-02-15T06:20:48;95689.72;;;2.78;90.22
35778;BME280;21899;42.662;23.316;2023-02-15T06:23:14;95698.28;;;2.83;90.72
35778;BME280;21899;42.662;23.316;2023-02-15T06:25:40;95694.28;;;2.86;90.24
35778;BME280;21899;42.662;23.316;2023-02-15T06:28:06;95698.91;;;2.80;90.17
35778;BME280;21899;42.662;23.316;2023-02-15T06:30:31;95695.78;;;2.78;90.61
35778;BME280;21899;42.662;23.316;2023-02-15T06:32:57;95683.94;;;2.76;89.88
35778;BME280;21899;42.662;23.316;2023-02-15T06:35:22;95694.72;;;2.88;89.59
35778;BME280;21899;42.662;23.316;2023-02-15T06:37:48;95692.25;;;2.91;89.20
35778;BME280;21899;42.662;23.316;2023-02-15T06:40:14;95691.94;;;2.93;89.93
35778;BME280;21899;42.662;23.316;2023-02-15T06:42:41;95698.06;;;3.02;88.92
35778;BME280;21899;42.662;23.316;2023-02-15T06:45:06;95679.56;;;3.02;88.69
35778;BME280;21899;42.662;23.316;2023-02-15T06:47:32;95692.03;;;3.10;87.94
35778;BME280;21899;42.662;23.316;2023-02-15T06:49:57;95693.47;;;3.16;87.44
35778;BME280;21899;42.662;23.316;2023-02-15T06:52:23;95696.44;;;3.23;86.74
35778;BME280;21899;42.662;23.316;2023-02-15T06:54:48;95694.56;;;3.15;87.08
35778;BME280;21899;42.662;23.316;2023-02-15T06:57:14;95699.56;;;3.25;85.90
35778;BME280;21899;42.662;23.316;2023-02-15T06:59:39;95687.75;;;3.31;85.32
35778;BME280;21899;42.662;23.316;2023-02-15T07:02:05;95694.66;;;3.49;84.57
35778;BME280;21899;42.662;23.316;2023-02-15T07:04:30;95693.63;;;3.58;84.27
35778;BME280;21899;42.662;23.316;2023-02-15T07:06:56;95689.09;;;3.59;83.00
35778;BME280;21899;42.662;23.316;2023-02-15T07:09:21;95690.03;;;3.63;83.53
35778;BME280;21899;42.662;23.316;2023-02-15T07:11:47;95687.72;;;3.70;81.76
35778;BME280;21899;42.662;23.316;2023-02-15T07:14:31;95677.16;;;3.78;82.37
35778;BME280;21899;42.662;23.316;2023-02-15T07:16:57;95687.75;;;3.95;80.76
35778;BME280;21899;42.662;23.316;2023-02-15T07:19:22;95696.66;;;4.08;80.11
35778;BME280;21899;42.662;23.316;2023-02-15T07:21:48;95698.81;;;4.23;78.94
35778;BME280;21899;42.662;23.316;2023-02-15T07:24:13;95697.28;;;4.39;78.14
35778;BME280;21899;42.662;23.316;2023-02-15T07:26:39;95704.13;;;4.23;77.93
35778;BME280;21899;42.662;23.316;2023-02-15T07:29:04;95713.34;;;4.34;77.72
35778;BME280;21899;42.662;23.316;2023-02-15T07:31:30;95710.22;;;4.49;77.63
35778;BME280;21899;42.662;23.316;2023-02-15T07:33:55;95702.09;;;4.54;76.10
35778;BME280;21899;42.662;23.316;2023-02-15T07:36:21;95697.88;;;4.45;76.45
35778;BME280;21899;42.662;23.316;2023-02-15T07:38:46;95692.88;;;4.52;76.47
35778;BME280;21899;42.662;23.316;2023-02-15T07:41:13;95687.59;;;4.52;75.88
35778;BME280;21899;42.662;23.316;2023-02-15T07:43:41;95697.84;;;4.70;75.85
35778;BME280;21899;42.662;23.316;2023-02-15T07:46:12;95697.22;;;4.73;74.08
35778;BME280;21899;42.662;23.316;2023-02-15T07:48:39;95688.69;;;4.59;74.49
35778;BME280;21899;42.662;23.316;2023-02-15T07:51:07;95674.00;;;4.53;74.64
35778;BME280;21899;42.662;23.316;2023-02-15T07:53:34;95681.81;;;4.50;75.20
35778;BME280;21899;42.662;23.316;2023-02-15T07:56:01;95680.41;;;4.61;74.19
35778;BME280;21899;42.662;23.316;2023-02-15T07:58:27;95688.69;;;4.59;74.50
35778;BME280;21899;42.662;23.316;2023-02-15T08:01:13;95685.72;;;4.61;74.44
35778;BME280;21899;42.662;23.316;2023-02-15T08:03:39;95685.97;;;4.76;74.72
35778;BME280;21899;42.662;23.316;2023-02-15T08:06:04;95685.50;;;4.74;74.07
35778;BME280;21899;42.662;23.316;2023-02-15T08:08:30;95689.41;;;4.85;73.89
35778;BME280;21899;42.662;23.316;2023-02-15T08:13:44;95689.59;;;4.72;74.22
35778;BME280;21899;42.662;23.316;2023-02-15T08:18:45;95704.13;;;4.66;74.17
35778;BME280;21899;42.662;23.316;2023-02-15T08:21:10;95687.00;;;4.46;74.82
35778;BME280;21899;42.662;23.316;2023-02-15T08:23:36;95690.72;;;4.45;75.33
35778;BME280;21899;42.662;23.316;2023-02-15T08:26:01;95707.88;;;4.39;75.31
35778;BME280;21899;42.662;23.316;2023-02-15T08:28:26;95693.53;;;4.23;75.28
35778;BME280;21899;42.662;23.316;2023-02-15T08:30:52;95691.81;;;4.36;75.60
35778;BME280;21899;42.662;23.316;2023-02-15T08:33:17;95695.69;;;4.55;75.39
35778;BME280;21899;42.662;23.316;2023-02-15T08:35:43;95686.34;;;4.58;73.97
35778;BME280;21899;42.662;23.316;2023-02-15T08:38:08;95693.34;;;4.62;74.41
35778;BME280;21899;42.662;23.316;2023-02-15T08:40:33;95693.03;;;4.72;73.20
35778;BME280;21899;42.662;23.316;2023-02-15T08:42:59;95692.09;;;4.68;73.46
35778;BME280;21899;42.662;23.316;2023-02-15T08:45:25;95707.81;;;4.82;72.89
35778;BME280;21899;42.662;23.316;2023-02-15T08:47:50;95702.97;;;4.92;71.70
35778;BME280;21899;42.662;23.316;2023-02-15T08:50:16;95700.19;;;4.80;72.27
35778;BME280;21899;42.662;23.316;2023-02-15T08:52:41;95689.13;;;4.61;73.16
35778;BME280;21899;42.662;23.316;2023-02-15T08:55:06;95701.63;;;4.52;74.33
35778;BME280;21899;42.662;23.316;2023-02-15T08:57:32;95707.25;;;4.59;73.25
35778;BME280;21899;42.662;23.316;2023-02-15T08:59:57;95706.28;;;4.72;72.92
35778;BME280;21899;42.662;23.316;2023-02-15T09:02:23;95712.47;;;4.93;71.87
35778;BME280;21899;42.662;23.316;2023-02-15T09:04:48;95711.97;;;5.08;69.99
35778;BME280;21899;42.662;23.316;2023-02-15T09:07:13;95708.38;;;5.13;69.39
35778;BME280;21899;42.662;23.316;2023-02-15T09:09:39;95713.34;;;5.14;69.46
35778;BME280;21899;42.662;23.316;2023-02-15T09:12:04;95707.75;;;5.07;69.78
35778;BME280;21899;42.662;23.316;2023-02-15T09:14:30;95715.78;;;4.90;69.63
35778;BME280;21899;42.662;23.316;2023-02-15T09:16:55;95706.72;;;4.83;70.00
35778;BME280;21899;42.662;23.316;2023-02-15T09:19:22;95704.50;;;5.02;69.61
35778;BME280;21899;42.662;23.316;2023-02-15T09:21:47;95697.63;;;5.01;69.14
35778;BME280;21899;42.662;23.316;2023-02-15T09:24:15;95703.34;;;5.20;69.16
35778;BME280;21899;42.662;23.316;2023-02-15T09:26:43;95696.56;;;5.40;68.23
35778;BME280;21899;42.662;23.316;2023-02-15T09:29:09;95713.25;;;5.78;67.29
35778;BME280;21899;42.662;23.316;2023-02-15T09:31:41;95699.28;;;5.89;66.26
35778;BME280;21899;42.662;23.316;2023-02-15T09:34:09;95697.03;;;6.00;65.33
35778;BME280;21899;42.662;23.316;2023-02-15T09:36:38;95711.88;;;5.72;65.44
35778;BME280;21899;42.662;23.316;2023-02-15T09:39:15;95704.78;;;5.55;66.34
35778;BME280;21899;42.662;23.316;2023-02-15T09:47:22;95706.47;;;5.60;67.01
35778;BME280;21899;42.662;23.316;2023-02-15T09:57:42;95700.03;;;5.61;68.08
35778;BME280;21899;42.662;23.316;2023-02-15T10:00:24;95708.66;;;5.87;67.01
35778;BME280;21899;42.662;23.316;2023-02-15T10:03:17;95698.50;;;5.89;66.69
35778;BME280;21899;42.662;23.316;2023-02-15T10:27:41;95682.47;;;5.77;65.86
35778;BME280;21899;42.662;23.316;2023-02-15T10:30:11;95678.03;;;5.60;67.03
35778;BME280;21899;42.662;23.316;2023-02-15T10:41:09;95676.94;;;5.82;66.58
35778;BME280;21899;42.662;23.316;2023-02-15T10:43:45;95683.66;;;5.88;65.22
35778;BME280;21899;42.662;23.316;2023-02-15T10:46:32;95661.84;;;6.03;64.89
35778;BME280;21899;42.662;23.316;2023-02-15T10:54:39;95661.09;;;6.35;62.41
35778;BME280;21899;42.662;23.316;2023-02-15T10:57:22;95665.78;;;6.17;63.53
35778;BME280;21899;42.662;23.316;2023-02-15T11:02:45;95661.16;;;5.56;65.76
35778;BME280;21899;42.662;23.316;2023-02-15T11:08:37;95660.94;;;5.41;67.08
35778;BME280;21899;42.662;23.316;2023-02-15T11:11:07;95642.63;;;5.48;66.82
35778;BME280;21899;42.662;23.316;2023-02-15T11:13:45;95657.63;;;5.73;66.09
35778;BME280;21899;42.662;23.316;2023-02-15T11:16:21;95646.69;;;5.74;66.33
35778;BME280;21899;42.662;23.316;2023-02-15T11:18:54;95660.00;;;5.66;66.42
35778;BME280;21899;42.662;23.316;2023-02-15T11:21:37;95645.75;;;5.50;66.56
35778;BME280;21899;42.662;23.316;2023-02-15T11:24:10;95646.06;;;5.48;66.46
35778;BME280;21899;42.662;23.316;2023-02-15T11:29:22;95653.22;;;5.27;67.72
35778;BME280;21899;42.662;23.316;2023-02-15T11:31:57;95646.53;;;5.12;68.47
35778;BME280;21899;42.662;23.316;2023-02-15T11:34:31;95647.94;;;5.18;68.78
35778;BME280;21899;42.662;23.316;2023-02-15T11:37:03;95627.69;;;5.05;68.28
35778;BME280;21899;42.662;23.316;2023-02-15T11:39:31;95636.47;;;4.97;68.96
35778;BME280;21899;42.662;23.316;2023-02-15T11:42:06;95613.66;;;5.05;68.47
35778;BME280;21899;42.662;23.316;2023-02-15T11:44:39;95634.91;;;4.96;69.23
35778;BME280;21899;42.662;23.316;2023-02-15T11:47:11;95630.56;;;4.92;69.97
35778;BME280;21899;42.662;23.316;2023-02-15T11:49:37;95618.38;;;4.91;69.51
35778;BME280;21899;42.662;23.316;2023-02-15T11:52:10;95618.94;;;5.05;69.53
35778;BME280;21899;42.662;23.316;2023-02-15T11:54:41;95619.75;;;5.05;68.62
35778;BME280;21899;42.662;23.316;2023-02-15T11:59:40;95610.31;;;5.16;67.97
35778;BME280;21899;42.662;23.316;2023-02-15T12:02:19;95617.09;;;5.34;67.71
35778;BME280;21899;42.662;23.316;2023-02-15T12:05:00;95595.56;;;5.27;67.56
35778;BME280;21899;42.662;23.316;2023-02-15T12:07:35;95593.19;;;5.34;67.69
35778;BME280;21899;42.662;23.316;2023-02-15T12:10:22;95592.00;;;5.53;67.36
35778;BME280;21899;42.662;23.316;2023-02-15T12:15:34;95589.84;;;5.46;67.47
35778;BME280;21899;42.662;23.316;2023-02-15T12:18:00;95597.03;;;5.16;68.20
35778;BME280;21899;42.662;23.316;2023-02-15T12:20:30;95587.56;;;5.07;69.18
35778;BME280;21899;42.662;23.316;2023-02-15T12:23:02;95589.13;;;5.08;69.16
35778;BME280;21899;42.662;23.316;2023-02-15T12:31:02;95586.34;;;5.33;67.98
35778;BME280;21899;42.662;23.316;2023-02-15T12:33:31;95579.00;;;5.30;68.19
35778;BME280;21899;42.662;23.316;2023-02-15T12:36:18;95593.53;;;5.33;68.30
35778;BME280;21899;42.662;23.316;2023-02-15T12:41:37;95565.19;;;5.16;68.92
35778;BME280;21899;42.662;23.316;2023-02-15T12:44:23;95558.66;;;5.14;69.66
35778;BME280;21899;42.662;23.316;2023-02-15T12:49:36;95552.91;;;5.32;69.08
35778;BME280;21899;42.662;23.316;2023-02-15T12:52:24;95551.84;;;5.33;69.34
35778;BME280;21899;42.662;23.316;2023-02-15T12:54:51;95543.69;;;5.39;68.54
35778;BME280;21899;42.662;23.316;2023-02-15T13:02:51;95555.72;;;5.57;67.70
35778;BME280;21899;42.662;23.316;2023-02-15T13:05:37;95553.00;;;5.65;67.25
35778;BME280;21899;42.662;23.316;2023-02-15T13:08:21;95544.19;;;5.53;67.68
35778;BME280;21899;42.662;23.316;2023-02-15T13:10:56;95550.84;;;5.59;67.45
35778;BME280;21899;42.662;23.316;2023-02-15T13:13:26;95544.59;;;5.63;66.99
35778;BME280;21899;42.662;23.316;2023-02-15T13:15:56;95532.25;;;5.59;67.42
35778;BME280;21899;42.662;23.316;2023-02-15T13:18:30;95534.22;;;5.50;67.65
35778;BME280;21899;42.662;23.316;2023-02-15T13:20:56;95540.75;;;5.52;67.36
35778;BME280;21899;42.662;23.316;2023-02-15T13:23:29;95526.06;;;5.55;67.71
35778;BME280;21899;42.662;23.316;2023-02-15T13:26:02;95539.94;;;5.60;67.20
35778;BME280;21899;42.662;23.316;2023-02-15T13:28:39;95526.94;;;5.59;66.82
35778;BME280;21899;42.662;23.316;2023-02-15T13:31:15;95541.41;;;5.70;67.12
35778;BME280;21899;42.662;23.316;2023-02-15T13:33:46;95535.00;;;5.71;66.20
35778;BME280;21899;42.662;23.316;2023-02-15T13:36:29;95533.13;;;5.71;66.27
35778;BME280;21899;42.662;23.316;2023-02-15T13:39:07;95539.41;;;5.67;67.38
35778;BME280;21899;42.662;23.316;2023-02-15T13:55:38;95558.44;;;5.69;67.90
35778;BME280;21899;42.662;23.316;2023-02-15T13:58:21;95559.41;;;5.64;67.88
35778;BME280;21899;42.662;23.316;2023-02-15T14:01:18;95556.38;;;5.74;67.83
35778;BME280;21899;42.662;23.316;2023-02-15T14:11:56;95563.34;;;5.79;67.32
35778;BME280;21899;42.662;23.316;2023-02-15T14:17:08;95572.41;;;5.57;69.31
35778;BME280;21899;42.662;23.316;2023-02-15T14:19:49;95565.50;;;5.44;69.12
35778;BME280;21899;42.662;23.316;2023-02-15T14:22:26;95592.41;;;5.34;69.90
35778;BME280;21899;42.662;23.316;2023-02-15T14:30:38;95591.91;;;5.11;71.24
35778;BME280;21899;42.662;23.316;2023-02-15T14:33:24;95582.59;;;5.05;71.60
35778;BME280;21899;42.662;23.316;2023-02-15T14:35:53;95584.13;;;5.06;71.98
35778;BME280;21899;42.662;23.316;2023-02-15T14:38:47;95588.66;;;5.06;71.89
35778;BME280;21899;42.662;23.316;2023-02-15T14:41:37;95565.59;;;4.98;72.67
35778;BME280;21899;42.662;23.316;2023-02-15T14:44:30;95582.66;;;4.88;72.22
35778;BME280;21899;42.662;23.316;2023-02-15T14:47:17;95581.13;;;4.87;72.62
35778;BME280;21899;42.662;23.316;2023-02-15T14:49:44;95579.84;;;4.93;72.24
35778;BME280;21899;42.662;23.316;2023-02-15T14:52:11;95578.63;;;4.82;72.96
35778;BME280;21899;42.662;23.316;2023-02-15T15:01:56;95581.53;;;4.52;74.87
35778;BME280;21899;42.662;23.316;2023-02-15T15:04:31;95574.41;;;4.44;74.86
35778;BME280;21899;42.662;23.316;2023-02-15T15:09:46;95585.66;;;4.32;75.46
35778;BME280;21899;42.662;23.316;2023-02-15T15:14:50;95576.00;;;4.19;76.06
35778;BME280;21899;42.662;23.316;2023-02-15T15:20:02;95587.25;;;4.16;76.48
35778;BME280;21899;42.662;23.316;2023-02-15T15:22:30;95583.19;;;4.19;76.24
35778;BME280;21899;42.662;23.316;2023-02-15T15:25:01;95586.94;;;4.09;76.84
35778;BME280;21899;42.662;23.316;2023-02-15T15:27:43;95588.19;;;4.03;77.92
35778;BME280;21899;42.662;23.316;2023-02-15T15:32:42;95579.47;;;3.85;78.32
35778;BME280;21899;42.662;23.316;2023-02-15T15:35:17;95592.88;;;3.89;78.58
35778;BME280;21899;42.662;23.316;2023-02-15T15:49:02;95596.13;;;3.60;80.11
35778;BME280;21899;42.662;23.316;2023-02-15T15:51:32;95600.19;;;3.58;80.51
35778;BME280;21899;42.662;23.316;2023-02-15T15:54:01;95589.88;;;3.48;81.02
35778;BME280;21899;42.662;23.316;2023-02-15T15:56:29;95592.53;;;3.48;81.61
35778;BME280;21899;42.662;23.316;2023-02-15T15:59:02;95584.91;;;3.38;81.92
35778;BME280;21899;42.662;23.316;2023-02-15T16:01:34;95599.84;;;3.42;82.44
35778;BME280;21899;42.662;23.316;2023-02-15T16:04:03;95598.91;;;3.38;82.74
35778;BME280;21899;42.662;23.316;2023-02-15T16:06:32;95609.81;;;3.37;83.04
35778;BME280;21899;42.662;23.316;2023-02-15T16:09:12;95609.00;;;3.28;83.68
35778;BME280;21899;42.662;23.316;2023-02-15T16:11:38;95607.44;;;3.27;83.74